sensor_id;sensor_type;location;lat;lon;timestamp;P1;durP1;ratioP1;P2;durP2;ratioP2
36575;SDS011;45700;50.930;5.168;2022-12-08T00:01:43;7.00;;;3.50;;
36575;SDS011;45700;50.930;5.168;2022-12-08T00:05:45;4.68;;;2.30;;
36575;SDS011;45700;50.930;5.168;2022-12-08T00:10:04;4.97;;;2.92;;
36575;SDS011;45700;50.930;5.168;2022-12-08T00:14:05;7.40;;;2.78;;
36575;SDS011;45700;50.930;5.168;2022-12-08T00:18:06;9.02;;;2.95;;
36575;SDS011;45700;50.930;5.168;2022-12-08T00:22:08;5.35;;;2.28;;
36575;SDS011;45700;50.930;5.168;2022-12-08T00:26:09;4.30;;;1.95;;
36575;SDS011;45700;50.930;5.168;2022-12-08T00:30:10;2.45;;;1.83;;
36575;SDS011;45700;50.930;5.168;2022-12-08T00:34:12;3.42;;;2.13;;
36575;SDS011;45700;50.930;5.168;2022-12-08T00:38:13;3.20;;;1.73;;
36575;SDS011;45700;50.930;5.168;2022-12-08T00:42:14;4.10;;;2.00;;
36575;SDS011;45700;50.930;5.168;2022-12-08T00:46:16;3.17;;;1.60;;
36575;SDS011;45700;50.930;5.168;2022-12-08T00:50:17;3.67;;;2.00;;
36575;SDS011;45700;50.930;5.168;2022-12-08T00:54:18;4.47;;;2.13;;
36575;SDS011;45700;50.930;5.168;2022-12-08T00:58:19;11.75;;;3.75;;
36575;SDS011;45700;50.930;5.168;2022-12-08T01:02:20;8.70;;;2.72;;
36575;SDS011;45700;50.930;5.168;2022-12-08T01:06:21;6.25;;;3.65;;
36575;SDS011;45700;50.930;5.168;2022-12-08T01:10:22;8.80;;;3.60;;
36575;SDS011;45700;50.930;5.168;2022-12-08T01:14:23;9.15;;;4.55;;
36575;SDS011;45700;50.930;5.168;2022-12-08T01:18:25;9.35;;;4.43;;
36575;SDS011;45700;50.930;5.168;2022-12-08T01:22:26;11.43;;;4.55;;
36575;SDS011;45700;50.930;5.168;2022-12-08T01:26:27;18.50;;;6.50;;
36575;SDS011;45700;50.930;5.168;2022-12-08T01:30:28;11.65;;;4.60;;
36575;SDS011;45700;50.930;5.168;2022-12-08T01:34:29;19.27;;;7.10;;
36575;SDS011;45700;50.930;5.168;2022-12-08T01:38:30;20.80;;;7.13;;
36575;SDS011;45700;50.930;5.168;2022-12-08T01:42:31;13.27;;;6.25;;
36575;SDS011;45700;50.930;5.168;2022-12-08T01:46:34;14.88;;;6.20;;
36575;SDS011;45700;50.930;5.168;2022-12-08T01:50:35;18.48;;;6.57;;
36575;SDS011;45700;50.930;5.168;2022-12-08T01:54:42;22.05;;;7.63;;
36575;SDS011;45700;50.930;5.168;2022-12-08T01:58:47;19.30;;;7.53;;
36575;SDS011;45700;50.930;5.168;2022-12-08T02:06:49;26.05;;;7.50;;
36575;SDS011;45700;50.930;5.168;2022-12-08T02:10:50;17.20;;;8.15;;
36575;SDS011;45700;50.930;5.168;2022-12-08T02:14:52;33.05;;;8.45;;
36575;SDS011;45700;50.930;5.168;2022-12-08T02:23:04;15.02;;;5.50;;
36575;SDS011;45700;50.930;5.168;2022-12-08T02:43:43;20.92;;;8.63;;
36575;SDS011;45700;50.930;5.168;2022-12-08T02:47:44;21.30;;;8.35;;
36575;SDS011;45700;50.930;5.168;2022-12-08T02:51:46;20.15;;;7.97;;
36575;SDS011;45700;50.930;5.168;2022-12-08T03:08:23;22.83;;;7.68;;
36575;SDS011;45700;50.930;5.168;2022-12-08T03:16:29;22.63;;;7.85;;
36575;SDS011;45700;50.930;5.168;2022-12-08T03:20:33;15.80;;;6.75;;
36575;SDS011;45700;50.930;5.168;2022-12-08T03:24:37;24.10;;;8.13;;
36575;SDS011;45700;50.930;5.168;2022-12-08T03:28:39;18.95;;;8.02;;
36575;SDS011;45700;50.930;5.168;2022-12-08T03:37:16;24.17;;;8.05;;
36575;SDS011;45700;50.930;5.168;2022-12-08T03:41:17;14.35;;;7.03;;
36575;SDS011;45700;50.930;5.168;2022-12-08T03:45:19;27.23;;;8.38;;
36575;SDS011;45700;50.930;5.168;2022-12-08T03:49:20;22.40;;;8.20;;
36575;SDS011;45700;50.930;5.168;2022-12-08T03:53:21;18.92;;;9.57;;
36575;SDS011;45700;50.930;5.168;2022-12-08T03:57:22;19.92;;;6.75;;
36575;SDS011;45700;50.930;5.168;2022-12-08T04:01:23;17.92;;;8.63;;
36575;SDS011;45700;50.930;5.168;2022-12-08T04:05:24;17.90;;;7.70;;
36575;SDS011;45700;50.930;5.168;2022-12-08T04:09:25;22.70;;;7.57;;
36575;SDS011;45700;50.930;5.168;2022-12-08T04:13:26;18.70;;;8.98;;
36575;SDS011;45700;50.930;5.168;2022-12-08T04:17:27;15.02;;;8.20;;
36575;SDS011;45700;50.930;5.168;2022-12-08T04:21:28;25.08;;;9.70;;
36575;SDS011;45700;50.930;5.168;2022-12-08T04:25:29;17.70;;;6.90;;
36575;SDS011;45700;50.930;5.168;2022-12-08T04:29:30;14.40;;;7.68;;
36575;SDS011;45700;50.930;5.168;2022-12-08T04:33:31;24.38;;;8.05;;
36575;SDS011;45700;50.930;5.168;2022-12-08T04:37:34;24.80;;;8.82;;
36575;SDS011;45700;50.930;5.168;2022-12-08T04:41:35;20.00;;;8.80;;
36575;SDS011;45700;50.930;5.168;2022-12-08T04:45:38;33.15;;;10.45;;
36575;SDS011;45700;50.930;5.168;2022-12-08T04:49:39;21.20;;;8.32;;
36575;SDS011;45700;50.930;5.168;2022-12-08T04:53:40;31.52;;;8.10;;
36575;SDS011;45700;50.930;5.168;2022-12-08T04:57:41;17.08;;;7.32;;
36575;SDS011;45700;50.930;5.168;2022-12-08T05:01:42;20.05;;;6.97;;
36575;SDS011;45700;50.930;5.168;2022-12-08T05:05:43;15.73;;;5.35;;
36575;SDS011;45700;50.930;5.168;2022-12-08T05:09:44;15.43;;;8.95;;
36575;SDS011;45700;50.930;5.168;2022-12-08T05:13:45;11.68;;;6.45;;
36575;SDS011;45700;50.930;5.168;2022-12-08T05:17:46;10.25;;;5.65;;
36575;SDS011;45700;50.930;5.168;2022-12-08T05:21:47;14.43;;;6.05;;
36575;SDS011;45700;50.930;5.168;2022-12-08T05:25:48;16.85;;;7.10;;
36575;SDS011;45700;50.930;5.168;2022-12-08T05:29:49;13.43;;;6.82;;
36575;SDS011;45700;50.930;5.168;2022-12-08T05:33:50;19.52;;;6.82;;
36575;SDS011;45700;50.930;5.168;2022-12-08T05:37:51;20.08;;;6.45;;
36575;SDS011;45700;50.930;5.168;2022-12-08T05:41:52;20.45;;;7.95;;
36575;SDS011;45700;50.930;5.168;2022-12-08T05:45:53;11.63;;;5.40;;
36575;SDS011;45700;50.930;5.168;2022-12-08T05:49:54;11.48;;;6.07;;
36575;SDS011;45700;50.930;5.168;2022-12-08T05:53:56;20.25;;;7.72;;
36575;SDS011;45700;50.930;5.168;2022-12-08T05:57:57;19.63;;;6.95;;
36575;SDS011;45700;50.930;5.168;2022-12-08T06:01:58;12.75;;;7.03;;
36575;SDS011;45700;50.930;5.168;2022-12-08T06:05:59;25.20;;;6.60;;
36575;SDS011;45700;50.930;5.168;2022-12-08T06:10:00;14.07;;;6.85;;
36575;SDS011;45700;50.930;5.168;2022-12-08T06:14:01;16.52;;;7.72;;
36575;SDS011;45700;50.930;5.168;2022-12-08T06:18:02;14.27;;;7.38;;
36575;SDS011;45700;50.930;5.168;2022-12-08T06:22:03;20.90;;;5.82;;
36575;SDS011;45700;50.930;5.168;2022-12-08T06:26:05;17.33;;;5.53;;
36575;SDS011;45700;50.930;5.168;2022-12-08T06:30:07;21.83;;;6.03;;
36575;SDS011;45700;50.930;5.168;2022-12-08T06:34:08;17.58;;;7.82;;
36575;SDS011;45700;50.930;5.168;2022-12-08T06:38:09;13.55;;;5.90;;
36575;SDS011;45700;50.930;5.168;2022-12-08T06:42:10;10.88;;;5.22;;
36575;SDS011;45700;50.930;5.168;2022-12-08T06:50:30;3.20;;;3.00;;
36575;SDS011;45700;50.930;5.168;2022-12-08T06:54:33;16.33;;;7.60;;
36575;SDS011;45700;50.930;5.168;2022-12-08T06:58:35;1.45;;;1.30;;
36575;SDS011;45700;50.930;5.168;2022-12-08T07:02:36;1.65;;;1.55;;
36575;SDS011;45700;50.930;5.168;2022-12-08T07:06:37;1.25;;;1.25;;
36575;SDS011;45700;50.930;5.168;2022-12-08T07:10:38;5.38;;;1.48;;
36575;SDS011;45700;50.930;5.168;2022-12-08T07:14:39;0.75;;;0.75;;
36575;SDS011;45700;50.930;5.168;2022-12-08T07:18:40;2.65;;;2.00;;
36575;SDS011;45700;50.930;5.168;2022-12-08T07:22:49;2.45;;;2.25;;
36575;SDS011;45700;50.930;5.168;2022-12-08T07:26:50;1.25;;;1.10;;
36575;SDS011;45700;50.930;5.168;2022-12-08T07:30:51;3.13;;;0.95;;
36575;SDS011;45700;50.930;5.168;2022-12-08T07:34:52;2.45;;;2.05;;
36575;SDS011;45700;50.930;5.168;2022-12-08T07:38:53;9.88;;;3.47;;
36575;SDS011;45700;50.930;5.168;2022-12-08T07:42:54;0.85;;;0.85;;
36575;SDS011;45700;50.930;5.168;2022-12-08T07:46:55;1.20;;;1.00;;
36575;SDS011;45700;50.930;5.168;2022-12-08T07:51:00;5.57;;;2.22;;
36575;SDS011;45700;50.930;5.168;2022-12-08T07:55:01;4.22;;;1.42;;
36575;SDS011;45700;50.930;5.168;2022-12-08T07:59:02;6.72;;;2.30;;
36575;SDS011;45700;50.930;5.168;2022-12-08T08:03:03;0.90;;;0.88;;
36575;SDS011;45700;50.930;5.168;2022-12-08T08:07:07;13.15;;;2.95;;
36575;SDS011;45700;50.930;5.168;2022-12-08T08:11:14;2.42;;;2.05;;
36575;SDS011;45700;50.930;5.168;2022-12-08T08:15:15;10.05;;;2.70;;
36575;SDS011;45700;50.930;5.168;2022-12-08T08:19:18;1.23;;;1.13;;
36575;SDS011;45700;50.930;5.168;2022-12-08T08:23:19;1.70;;;1.60;;
36575;SDS011;45700;50.930;5.168;2022-12-08T08:27:20;1.75;;;1.65;;
36575;SDS011;45700;50.930;5.168;2022-12-08T08:31:24;3.95;;;1.63;;
36575;SDS011;45700;50.930;5.168;2022-12-08T08:35:25;1.60;;;1.33;;
36575;SDS011;45700;50.930;5.168;2022-12-08T08:39:26;24.90;;;3.67;;
36575;SDS011;45700;50.930;5.168;2022-12-08T08:43:29;2.38;;;2.17;;
36575;SDS011;45700;50.930;5.168;2022-12-08T08:47:30;5.07;;;1.33;;
36575;SDS011;45700;50.930;5.168;2022-12-08T08:51:32;1.48;;;1.38;;
36575;SDS011;45700;50.930;5.168;2022-12-08T08:55:33;1.95;;;1.65;;
36575;SDS011;45700;50.930;5.168;2022-12-08T08:59:34;1.50;;;0.98;;
36575;SDS011;45700;50.930;5.168;2022-12-08T09:03:35;0.95;;;0.95;;
36575;SDS011;45700;50.930;5.168;2022-12-08T09:07:36;3.63;;;2.08;;
36575;SDS011;45700;50.930;5.168;2022-12-08T09:11:37;1.40;;;1.30;;
36575;SDS011;45700;50.930;5.168;2022-12-08T09:15:38;0.20;;;0.20;;
36575;SDS011;45700;50.930;5.168;2022-12-08T09:19:39;1.98;;;1.45;;
36575;SDS011;45700;50.930;5.168;2022-12-08T09:23:40;3.80;;;1.38;;
36575;SDS011;45700;50.930;5.168;2022-12-08T09:27:41;3.20;;;1.35;;
36575;SDS011;45700;50.930;5.168;2022-12-08T09:31:42;1.75;;;1.13;;
36575;SDS011;45700;50.930;5.168;2022-12-08T09:35:43;1.48;;;1.38;;
36575;SDS011;45700;50.930;5.168;2022-12-08T09:39:44;10.77;;;0.90;;
36575;SDS011;45700;50.930;5.168;2022-12-08T09:48:10;0.35;;;0.35;;
36575;SDS011;45700;50.930;5.168;2022-12-08T09:52:18;1.35;;;1.15;;
36575;SDS011;45700;50.930;5.168;2022-12-08T09:56:26;1.47;;;1.40;;
36575;SDS011;45700;50.930;5.168;2022-12-08T10:00:31;0.80;;;0.80;;
36575;SDS011;45700;50.930;5.168;2022-12-08T10:04:33;1.33;;;1.23;;
36575;SDS011;45700;50.930;5.168;2022-12-08T10:08:40;0.90;;;0.90;;
36575;SDS011;45700;50.930;5.168;2022-12-08T10:16:45;5.13;;;2.70;;
36575;SDS011;45700;50.930;5.168;2022-12-08T10:20:48;2.33;;;2.05;;
36575;SDS011;45700;50.930;5.168;2022-12-08T10:24:56;3.30;;;2.97;;
36575;SDS011;45700;50.930;5.168;2022-12-08T10:29:03;0.98;;;0.98;;
36575;SDS011;45700;50.930;5.168;2022-12-08T10:33:08;1.42;;;1.33;;
36575;SDS011;45700;50.930;5.168;2022-12-08T10:37:10;0.82;;;0.82;;
36575;SDS011;45700;50.930;5.168;2022-12-08T10:41:14;1.35;;;1.20;;
36575;SDS011;45700;50.930;5.168;2022-12-08T10:45:23;2.85;;;2.38;;
36575;SDS011;45700;50.930;5.168;2022-12-08T10:49:26;0.75;;;0.75;;
36575;SDS011;45700;50.930;5.168;2022-12-08T10:53:31;1.33;;;1.33;;
36575;SDS011;45700;50.930;5.168;2022-12-08T10:57:33;2.92;;;2.17;;
36575;SDS011;45700;50.930;5.168;2022-12-08T11:01:38;0.10;;;0.10;;
36575;SDS011;45700;50.930;5.168;2022-12-08T11:05:40;0.38;;;0.38;;
36575;SDS011;45700;50.930;5.168;2022-12-08T11:09:41;0.68;;;0.68;;
36575;SDS011;45700;50.930;5.168;2022-12-08T11:13:48;1.30;;;1.02;;
36575;SDS011;45700;50.930;5.168;2022-12-08T11:17:59;0.65;;;0.57;;
36575;SDS011;45700;50.930;5.168;2022-12-08T11:22:07;0.30;;;0.30;;
36575;SDS011;45700;50.930;5.168;2022-12-08T11:26:25;0.65;;;0.65;;
36575;SDS011;45700;50.930;5.168;2022-12-08T11:30:29;4.28;;;1.65;;
36575;SDS011;45700;50.930;5.168;2022-12-08T11:34:44;1.20;;;1.10;;
36575;SDS011;45700;50.930;5.168;2022-12-08T11:38:46;0.40;;;0.40;;
36575;SDS011;45700;50.930;5.168;2022-12-08T11:46:52;0.55;;;0.55;;
36575;SDS011;45700;50.930;5.168;2022-12-08T11:51:11;1.58;;;1.48;;
36575;SDS011;45700;50.930;5.168;2022-12-08T12:03:37;1.08;;;1.05;;
36575;SDS011;45700;50.930;5.168;2022-12-08T12:20:35;0.15;;;0.15;;
36575;SDS011;45700;50.930;5.168;2022-12-08T12:24:38;0.60;;;0.50;;
36575;SDS011;45700;50.930;5.168;2022-12-08T12:28:40;0.32;;;0.32;;
36575;SDS011;45700;50.930;5.168;2022-12-08T12:32:47;1.60;;;1.15;;
36575;SDS011;45700;50.930;5.168;2022-12-08T12:40:57;0.73;;;0.65;;
36575;SDS011;45700;50.930;5.168;2022-12-08T12:45:10;0.30;;;0.30;;
36575;SDS011;45700;50.930;5.168;2022-12-08T12:57:38;0.38;;;0.38;;
36575;SDS011;45700;50.930;5.168;2022-12-08T13:01:43;0.10;;;0.10;;
36575;SDS011;45700;50.930;5.168;2022-12-08T13:05:50;0.75;;;0.35;;
36575;SDS011;45700;50.930;5.168;2022-12-08T13:09:55;0.55;;;0.45;;
36575;SDS011;45700;50.930;5.168;2022-12-08T13:13:59;0.10;;;0.10;;
36575;SDS011;45700;50.930;5.168;2022-12-08T13:18:02;0.82;;;0.82;;
36575;SDS011;45700;50.930;5.168;2022-12-08T13:22:27;0.20;;;0.20;;
36575;SDS011;45700;50.930;5.168;2022-12-08T13:26:25;5.93;;;2.47;;
36575;SDS011;45700;50.930;5.168;2022-12-08T13:30:43;5.15;;;2.22;;
36575;SDS011;45700;50.930;5.168;2022-12-08T13:34:50;4.95;;;2.40;;
36575;SDS011;45700;50.930;5.168;2022-12-08T13:38:53;15.18;;;2.70;;
36575;SDS011;45700;50.930;5.168;2022-12-08T13:42:59;9.95;;;1.55;;
36575;SDS011;45700;50.930;5.168;2022-12-08T13:47:04;5.70;;;1.67;;
36575;SDS011;45700;50.930;5.168;2022-12-08T13:55:20;1.15;;;1.05;;
36575;SDS011;45700;50.930;5.168;2022-12-08T13:59:23;2.58;;;2.33;;
36575;SDS011;45700;50.930;5.168;2022-12-08T14:03:29;4.95;;;0.73;;
36575;SDS011;45700;50.930;5.168;2022-12-08T14:07:30;15.35;;;2.17;;
36575;SDS011;45700;50.930;5.168;2022-12-08T14:11:40;4.03;;;2.30;;
36575;SDS011;45700;50.930;5.168;2022-12-08T14:15:42;3.95;;;2.20;;
36575;SDS011;45700;50.930;5.168;2022-12-08T14:19:54;3.50;;;1.65;;
36575;SDS011;45700;50.930;5.168;2022-12-08T14:23:59;3.40;;;1.98;;
36575;SDS011;45700;50.930;5.168;2022-12-08T14:28:01;5.38;;;2.25;;
36575;SDS011;45700;50.930;5.168;2022-12-08T14:32:24;8.50;;;2.80;;
36575;SDS011;45700;50.930;5.168;2022-12-08T14:36:24;4.47;;;1.85;;
36575;SDS011;45700;50.930;5.168;2022-12-08T14:44:30;15.13;;;2.75;;
36575;SDS011;45700;50.930;5.168;2022-12-08T14:52:33;1.40;;;1.30;;
36575;SDS011;45700;50.930;5.168;2022-12-08T15:00:44;5.35;;;3.25;;
36575;SDS011;45700;50.930;5.168;2022-12-08T15:04:46;1.25;;;1.15;;
36575;SDS011;45700;50.930;5.168;2022-12-08T15:08:52;3.10;;;1.65;;
36575;SDS011;45700;50.930;5.168;2022-12-08T15:16:58;9.18;;;2.00;;
36575;SDS011;45700;50.930;5.168;2022-12-08T15:21:03;8.85;;;1.60;;
36575;SDS011;45700;50.930;5.168;2022-12-08T15:25:07;5.90;;;2.08;;
36575;SDS011;45700;50.930;5.168;2022-12-08T15:29:12;1.52;;;1.15;;
36575;SDS011;45700;50.930;5.168;2022-12-08T15:33:14;5.30;;;2.13;;
36575;SDS011;45700;50.930;5.168;2022-12-08T15:37:21;0.82;;;0.82;;
36575;SDS011;45700;50.930;5.168;2022-12-08T15:41:23;0.50;;;0.50;;
36575;SDS011;45700;50.930;5.168;2022-12-08T15:45:30;1.25;;;0.95;;
36575;SDS011;45700;50.930;5.168;2022-12-08T15:49:31;2.05;;;1.08;;
36575;SDS011;45700;50.930;5.168;2022-12-08T15:53:32;1.77;;;1.45;;
36575;SDS011;45700;50.930;5.168;2022-12-08T15:57:33;0.52;;;0.52;;
36575;SDS011;45700;50.930;5.168;2022-12-08T16:01:34;1.83;;;0.95;;
36575;SDS011;45700;50.930;5.168;2022-12-08T16:05:35;3.35;;;1.38;;
36575;SDS011;45700;50.930;5.168;2022-12-08T16:09:37;0.57;;;0.57;;
36575;SDS011;45700;50.930;5.168;2022-12-08T16:13:38;0.50;;;0.50;;
36575;SDS011;45700;50.930;5.168;2022-12-08T16:17:51;1.33;;;0.85;;
36575;SDS011;45700;50.930;5.168;2022-12-08T16:21:52;1.65;;;1.30;;
36575;SDS011;45700;50.930;5.168;2022-12-08T16:25:53;0.70;;;0.50;;
36575;SDS011;45700;50.930;5.168;2022-12-08T16:29:56;0.98;;;0.77;;
36575;SDS011;45700;50.930;5.168;2022-12-08T16:33:57;0.73;;;0.73;;
36575;SDS011;45700;50.930;5.168;2022-12-08T16:37:58;0.82;;;0.82;;
36575;SDS011;45700;50.930;5.168;2022-12-08T16:41:59;0.50;;;0.50;;
36575;SDS011;45700;50.930;5.168;2022-12-08T16:46:19;2.65;;;1.08;;
36575;SDS011;45700;50.930;5.168;2022-12-08T16:50:30;0.98;;;0.77;;
36575;SDS011;45700;50.930;5.168;2022-12-08T16:54:31;1.65;;;1.55;;
36575;SDS011;45700;50.930;5.168;2022-12-08T16:58:32;3.53;;;0.95;;
36575;SDS011;45700;50.930;5.168;2022-12-08T17:02:33;5.50;;;2.55;;
36575;SDS011;45700;50.930;5.168;2022-12-08T17:06:34;2.65;;;1.65;;
36575;SDS011;45700;50.930;5.168;2022-12-08T17:10:36;4.40;;;2.60;;
36575;SDS011;45700;50.930;5.168;2022-12-08T17:14:38;1.55;;;1.45;;
36575;SDS011;45700;50.930;5.168;2022-12-08T17:18:39;3.83;;;1.90;;
36575;SDS011;45700;50.930;5.168;2022-12-08T17:22:40;1.60;;;0.90;;
36575;SDS011;45700;50.930;5.168;2022-12-08T17:26:41;2.28;;;1.85;;
36575;SDS011;45700;50.930;5.168;2022-12-08T17:30:42;1.15;;;1.02;;
36575;SDS011;45700;50.930;5.168;2022-12-08T17:34:43;1.77;;;1.48;;
36575;SDS011;45700;50.930;5.168;2022-12-08T17:38:44;4.05;;;2.05;;
36575;SDS011;45700;50.930;5.168;2022-12-08T17:42:45;3.67;;;2.30;;
36575;SDS011;45700;50.930;5.168;2022-12-08T17:46:46;8.00;;;2.40;;
36575;SDS011;45700;50.930;5.168;2022-12-08T17:50:48;4.40;;;3.13;;
36575;SDS011;45700;50.930;5.168;2022-12-08T17:54:49;7.32;;;3.13;;
36575;SDS011;45700;50.930;5.168;2022-12-08T17:58:50;4.93;;;2.55;;
36575;SDS011;45700;50.930;5.168;2022-12-08T18:02:51;4.25;;;3.17;;
36575;SDS011;45700;50.930;5.168;2022-12-08T18:06:52;21.88;;;5.32;;
36575;SDS011;45700;50.930;5.168;2022-12-08T18:10:53;7.60;;;3.90;;
36575;SDS011;45700;50.930;5.168;2022-12-08T18:14:54;6.80;;;3.50;;
36575;SDS011;45700;50.930;5.168;2022-12-08T18:18:55;11.63;;;4.90;;
36575;SDS011;45700;50.930;5.168;2022-12-08T18:22:56;8.43;;;4.63;;
36575;SDS011;45700;50.930;5.168;2022-12-08T18:26:57;11.27;;;4.45;;
36575;SDS011;45700;50.930;5.168;2022-12-08T18:30:58;9.77;;;4.38;;
36575;SDS011;45700;50.930;5.168;2022-12-08T18:34:59;6.45;;;4.00;;
36575;SDS011;45700;50.930;5.168;2022-12-08T18:39:01;11.27;;;3.85;;
36575;SDS011;45700;50.930;5.168;2022-12-08T18:43:02;8.52;;;4.68;;
36575;SDS011;45700;50.930;5.168;2022-12-08T18:47:03;14.10;;;5.95;;
36575;SDS011;45700;50.930;5.168;2022-12-08T18:51:11;12.23;;;4.68;;
36575;SDS011;45700;50.930;5.168;2022-12-08T18:55:12;10.50;;;7.03;;
36575;SDS011;45700;50.930;5.168;2022-12-08T18:59:13;4.57;;;4.03;;
36575;SDS011;45700;50.930;5.168;2022-12-08T19:03:15;13.60;;;6.20;;
36575;SDS011;45700;50.930;5.168;2022-12-08T19:07:16;10.35;;;5.72;;
36575;SDS011;45700;50.930;5.168;2022-12-08T19:11:21;5.60;;;3.90;;
36575;SDS011;45700;50.930;5.168;2022-12-08T19:15:23;11.98;;;5.93;;
36575;SDS011;45700;50.930;5.168;2022-12-08T19:19:24;9.98;;;5.05;;
36575;SDS011;45700;50.930;5.168;2022-12-08T19:23:25;11.43;;;5.05;;
36575;SDS011;45700;50.930;5.168;2022-12-08T19:27:28;10.20;;;4.65;;
36575;SDS011;45700;50.930;5.168;2022-12-08T19:31:29;7.22;;;5.80;;
36575;SDS011;45700;50.930;5.168;2022-12-08T19:35:30;11.30;;;4.72;;
36575;SDS011;45700;50.930;5.168;2022-12-08T19:39:31;5.57;;;4.13;;
36575;SDS011;45700;50.930;5.168;2022-12-08T19:48:10;6.60;;;4.43;;
36575;SDS011;45700;50.930;5.168;2022-12-08T19:52:13;3.22;;;2.95;;
36575;SDS011;45700;50.930;5.168;2022-12-08T19:56:14;6.05;;;4.53;;
36575;SDS011;45700;50.930;5.168;2022-12-08T20:00:15;8.90;;;4.30;;
36575;SDS011;45700;50.930;5.168;2022-12-08T20:04:16;9.95;;;4.38;;
36575;SDS011;45700;50.930;5.168;2022-12-08T20:08:17;5.82;;;3.80;;
36575;SDS011;45700;50.930;5.168;2022-12-08T20:12:18;12.75;;;5.18;;
36575;SDS011;45700;50.930;5.168;2022-12-08T20:16:19;3.58;;;2.97;;
36575;SDS011;45700;50.930;5.168;2022-12-08T20:20:22;10.35;;;4.28;;
36575;SDS011;45700;50.930;5.168;2022-12-08T20:24:23;6.45;;;3.40;;
36575;SDS011;45700;50.930;5.168;2022-12-08T20:28:24;4.97;;;3.25;;
36575;SDS011;45700;50.930;5.168;2022-12-08T20:32:25;4.72;;;3.47;;
36575;SDS011;45700;50.930;5.168;2022-12-08T20:36:26;4.72;;;3.15;;
36575;SDS011;45700;50.930;5.168;2022-12-08T20:40:27;6.13;;;3.00;;
36575;SDS011;45700;50.930;5.168;2022-12-08T20:44:28;6.15;;;4.68;;
36575;SDS011;45700;50.930;5.168;2022-12-08T20:48:30;4.78;;;4.30;;
36575;SDS011;45700;50.930;5.168;2022-12-08T20:52:31;5.35;;;3.67;;
36575;SDS011;45700;50.930;5.168;2022-12-08T20:56:32;7.50;;;3.33;;
36575;SDS011;45700;50.930;5.168;2022-12-08T21:00:33;9.75;;;6.05;;
36575;SDS011;45700;50.930;5.168;2022-12-08T21:04:34;2.10;;;1.67;;
36575;SDS011;45700;50.930;5.168;2022-12-08T21:08:35;22.52;;;5.72;;
36575;SDS011;45700;50.930;5.168;2022-12-08T21:12:36;2.30;;;1.98;;
36575;SDS011;45700;50.930;5.168;2022-12-08T21:16:37;2.40;;;2.20;;
36575;SDS011;45700;50.930;5.168;2022-12-08T21:20:38;7.22;;;3.17;;
36575;SDS011;45700;50.930;5.168;2022-12-08T21:24:39;4.60;;;3.33;;
36575;SDS011;45700;50.930;5.168;2022-12-08T21:28:40;4.53;;;2.88;;
36575;SDS011;45700;50.930;5.168;2022-12-08T21:32:42;7.07;;;4.05;;
36575;SDS011;45700;50.930;5.168;2022-12-08T21:36:43;4.55;;;2.45;;
36575;SDS011;45700;50.930;5.168;2022-12-08T21:40:44;5.28;;;3.33;;
36575;SDS011;45700;50.930;5.168;2022-12-08T21:44:45;3.97;;;3.30;;
36575;SDS011;45700;50.930;5.168;2022-12-08T21:48:46;7.25;;;2.45;;
36575;SDS011;45700;50.930;5.168;2022-12-08T21:52:47;4.35;;;2.67;;
36575;SDS011;45700;50.930;5.168;2022-12-08T21:56:49;6.53;;;2.95;;
36575;SDS011;45700;50.930;5.168;2022-12-08T22:00:50;3.00;;;2.70;;
36575;SDS011;45700;50.930;5.168;2022-12-08T22:04:51;4.30;;;3.28;;
36575;SDS011;45700;50.930;5.168;2022-12-08T22:08:53;2.35;;;2.13;;
36575;SDS011;45700;50.930;5.168;2022-12-08T22:12:55;4.47;;;3.75;;
36575;SDS011;45700;50.930;5.168;2022-12-08T22:16:56;6.90;;;2.97;;
36575;SDS011;45700;50.930;5.168;2022-12-08T22:20:57;3.47;;;3.17;;
36575;SDS011;45700;50.930;5.168;2022-12-08T22:24:58;3.22;;;2.90;;
36575;SDS011;45700;50.930;5.168;2022-12-08T22:28:59;3.63;;;3.33;;
36575;SDS011;45700;50.930;5.168;2022-12-08T22:33:01;2.35;;;2.25;;
36575;SDS011;45700;50.930;5.168;2022-12-08T22:37:02;1.55;;;1.40;;
36575;SDS011;45700;50.930;5.168;2022-12-08T22:41:03;10.10;;;4.40;;
36575;SDS011;45700;50.930;5.168;2022-12-08T22:45:05;9.27;;;2.40;;
36575;SDS011;45700;50.930;5.168;2022-12-08T22:49:06;11.68;;;2.97;;
36575;SDS011;45700;50.930;5.168;2022-12-08T22:53:08;6.85;;;3.03;;
36575;SDS011;45700;50.930;5.168;2022-12-08T22:57:10;6.03;;;3.60;;
36575;SDS011;45700;50.930;5.168;2022-12-08T23:05:21;11.10;;;3.97;;
36575;SDS011;45700;50.930;5.168;2022-12-08T23:09:22;6.22;;;1.92;;
36575;SDS011;45700;50.930;5.168;2022-12-08T23:13:23;6.00;;;3.28;;
36575;SDS011;45700;50.930;5.168;2022-12-08T23:17:24;4.70;;;2.85;;
36575;SDS011;45700;50.930;5.168;2022-12-08T23:21:25;2.75;;;1.38;;
36575;SDS011;45700;50.930;5.168;2022-12-08T23:25:26;6.53;;;4.60;;
36575;SDS011;45700;50.930;5.168;2022-12-08T23:29:27;4.32;;;3.15;;
36575;SDS011;45700;50.930;5.168;2022-12-08T23:33:28;5.18;;;2.72;;
36575;SDS011;45700;50.930;5.168;2022-12-08T23:37:30;0.63;;;0.63;;
36575;SDS011;45700;50.930;5.168;2022-12-08T23:41:31;3.95;;;3.53;;
36575;SDS011;45700;50.930;5.168;2022-12-08T23:45:32;6.57;;;1.85;;
36575;SDS011;45700;50.930;5.168;2022-12-08T23:49:33;9.25;;;4.40;;
36575;SDS011;45700;50.930;5.168;2022-12-08T23:53:34;4.82;;;3.08;;
36575;SDS011;45700;50.930;5.168;2022-12-08T23:57:35;2.60;;;2.17;;
